createdAt,value
2022-10-15T00:02:00.779Z,14.80
2022-10-15T00:06:04.928Z,14.70
2022-10-15T00:10:09.389Z,14.70
2022-10-15T00:14:12.228Z,14.60
2022-10-15T00:18:15.152Z,14.50
2022-10-15T00:22:18.034Z,14.40
2022-10-15T00:26:23.186Z,14.30
2022-10-15T00:30:26.031Z,14.30
2022-10-15T00:34:28.879Z,14.10
2022-10-15T00:38:31.752Z,14.10
2022-10-15T00:42:36.064Z,14.00
2022-10-15T00:46:39.575Z,14.00
2022-10-15T00:50:42.509Z,13.90
2022-10-15T00:54:47.411Z,13.80
2022-10-15T00:58:52.759Z,13.80
2022-10-15T01:02:56.426Z,13.80
2022-10-15T01:06:59.286Z,13.70
2022-10-15T01:11:09.606Z,13.70
2022-10-15T01:15:17.316Z,13.60
2022-10-15T01:19:27.548Z,13.60
2022-10-15T01:23:44.152Z,13.60
2022-10-15T01:27:48.119Z,13.50
2022-10-15T01:31:58.039Z,13.50
2022-10-15T01:36:07.840Z,13.40
2022-10-15T01:40:14.136Z,13.40
2022-10-15T01:44:19.465Z,13.30
2022-10-15T01:48:24.029Z,13.20
2022-10-15T01:56:32.989Z,13.10
2022-10-15T02:00:35.850Z,13.00
2022-10-15T02:04:40.295Z,12.90
2022-10-15T02:08:46.764Z,12.80
2022-10-15T02:12:54.108Z,12.80
2022-10-15T02:16:59.538Z,12.70
2022-10-15T02:21:07.751Z,12.60
2022-10-15T02:25:14.049Z,12.50
2022-10-15T02:29:19.246Z,12.50
2022-10-15T02:33:23.050Z,12.50
2022-10-15T02:37:29.171Z,12.40
2022-10-15T02:41:32.013Z,12.30
2022-10-15T02:45:34.910Z,12.30
2022-10-15T02:49:38.100Z,12.20
2022-10-15T02:53:42.323Z,12.20
2022-10-15T02:57:45.158Z,12.10
2022-10-15T03:01:47.969Z,12.10
2022-10-15T03:05:50.989Z,12.00
2022-10-15T03:09:55.187Z,12.00
2022-10-15T03:13:58.043Z,12.00
2022-10-15T03:18:00.895Z,12.00
2022-10-15T03:22:03.759Z,11.90
2022-10-15T03:26:08.078Z,11.90
2022-10-15T03:30:11.483Z,11.90
2022-10-15T03:34:14.320Z,11.90
2022-10-15T03:38:17.167Z,11.80
2022-10-15T03:42:21.703Z,11.80
2022-10-15T03:46:24.715Z,11.70
2022-10-15T03:50:27.579Z,11.60
2022-10-15T03:54:30.522Z,11.60
2022-10-15T03:58:34.735Z,11.50
2022-10-15T04:02:37.590Z,11.50
2022-10-15T04:06:40.756Z,11.50
2022-10-15T04:10:43.655Z,11.40
2022-10-15T04:14:47.866Z,11.40
2022-10-15T04:18:50.705Z,11.40
2022-10-15T04:22:53.528Z,11.40
2022-10-15T04:26:56.358Z,11.40
2022-10-15T04:31:01.009Z,11.30
2022-10-15T04:35:04.006Z,11.30
2022-10-15T04:39:09.662Z,11.20
2022-10-15T04:43:15.088Z,11.20
2022-10-15T04:47:19.283Z,11.10
2022-10-15T04:51:22.284Z,11.10
2022-10-15T04:55:25.191Z,11.10
2022-10-15T04:59:28.036Z,11.00
2022-10-15T05:07:36.095Z,10.90
2022-10-15T05:11:39.140Z,10.90
2022-10-15T05:15:41.962Z,10.90
2022-10-15T05:19:46.148Z,10.80
2022-10-15T05:23:50.247Z,10.70
2022-10-15T05:27:53.161Z,10.70
2022-10-15T05:31:55.976Z,10.60
2022-10-15T05:36:08.644Z,10.60
2022-10-15T05:40:12.234Z,10.60
2022-10-15T05:44:15.171Z,10.50
2022-10-15T05:48:18.011Z,10.50
2022-10-15T05:52:22.554Z,10.50
2022-10-15T05:56:26.340Z,10.50
2022-10-15T06:00:29.392Z,10.50
2022-10-15T06:04:35.639Z,10.50
2022-10-15T06:08:40.276Z,10.50
2022-10-15T06:12:44.346Z,10.60
2022-10-15T06:16:50.630Z,10.60
2022-10-15T06:20:54.247Z,10.70
2022-10-15T06:24:58.435Z,10.80
2022-10-15T06:29:01.341Z,10.90
2022-10-15T06:33:04.400Z,10.90
2022-10-15T06:37:07.272Z,11.00
2022-10-15T06:41:11.599Z,11.10
2022-10-15T06:45:16.897Z,11.20
2022-10-15T06:49:22.251Z,11.30
2022-10-15T06:53:25.103Z,11.40
2022-10-15T06:57:29.698Z,11.40
2022-10-15T07:01:32.578Z,11.50
2022-10-15T07:05:35.736Z,11.60
2022-10-15T07:09:38.726Z,11.70
2022-10-15T07:13:44.290Z,11.80
2022-10-15T07:17:47.735Z,12.00
2022-10-15T07:21:50.605Z,12.10
2022-10-15T07:25:53.478Z,12.30
2022-10-15T07:29:57.774Z,12.40
2022-10-15T07:34:00.643Z,12.60
2022-10-15T07:38:03.655Z,12.70
2022-10-15T07:42:06.504Z,12.90
2022-10-15T07:46:10.782Z,13.00
2022-10-15T07:50:13.653Z,13.20
2022-10-15T07:54:16.520Z,13.40
2022-10-15T07:58:19.443Z,13.60
2022-10-15T08:02:23.848Z,13.80
2022-10-15T08:06:26.963Z,14.00
2022-10-15T08:10:29.815Z,14.10
2022-10-15T08:14:32.756Z,14.30
2022-10-15T08:18:37.736Z,14.50
2022-10-15T08:22:40.651Z,14.60
2022-10-15T08:26:43.471Z,14.60
2022-10-15T08:30:46.299Z,14.70
2022-10-15T08:34:50.503Z,14.70
2022-10-15T08:38:53.354Z,14.70
2022-10-15T08:42:56.847Z,14.80
2022-10-15T08:47:01.050Z,14.80
2022-10-15T08:51:07.993Z,14.90
2022-10-15T08:55:12.687Z,15.00
2022-10-15T08:59:19.522Z,15.10
2022-10-15T09:03:29.016Z,15.10
2022-10-15T09:07:36.296Z,15.20
2022-10-15T09:11:43.408Z,15.20
2022-10-15T09:15:49.838Z,15.30
2022-10-15T11:33:51.979Z,20.50
2022-10-15T11:38:01.531Z,20.30
2022-10-15T11:42:09.986Z,20.10
2022-10-15T11:46:15.452Z,19.90
2022-10-15T12:51:32.252Z,23.40
2022-10-15T12:55:37.509Z,23.10
2022-10-15T12:59:56.425Z,22.70
2022-10-15T13:04:00.108Z,22.30
2022-10-15T13:08:04.839Z,22.00
2022-10-15T13:12:22.617Z,21.80
2022-10-15T13:16:25.823Z,21.60
2022-10-15T13:20:31.523Z,21.20
2022-10-15T13:24:42.331Z,21.00
2022-10-15T13:28:47.482Z,20.80
2022-10-15T13:32:51.489Z,20.60
2022-10-15T13:36:54.718Z,20.40
2022-10-15T13:40:58.053Z,20.40
2022-10-15T13:45:04.429Z,20.20
2022-10-15T13:49:12.089Z,20.10
2022-10-15T13:53:17.416Z,20.10
2022-10-15T13:57:20.266Z,20.00
2022-10-15T14:01:25.311Z,19.90
2022-10-15T14:05:28.224Z,19.90
2022-10-15T14:09:33.055Z,19.80
2022-10-15T14:13:35.896Z,19.70
2022-10-15T14:17:40.938Z,19.70
2022-10-15T14:21:47.228Z,19.70
2022-10-15T14:25:53.556Z,19.60
2022-10-15T14:29:57.559Z,19.60
2022-10-15T14:34:01.776Z,19.50
2022-10-15T14:38:05.950Z,19.40
2022-10-15T14:42:27.312Z,19.40
2022-10-15T14:46:35.794Z,19.30
2022-10-15T14:50:42.675Z,19.20
2022-10-15T14:54:47.813Z,19.10
2022-10-15T14:58:53.271Z,19.00
2022-10-15T15:02:56.946Z,18.90
2022-10-15T15:07:01.217Z,18.80
2022-10-15T15:11:05.654Z,18.70
2022-10-15T15:15:13.809Z,18.70
2022-10-15T15:19:16.655Z,18.60
2022-10-15T15:23:22.907Z,18.60
2022-10-15T15:27:26.979Z,18.50
2022-10-15T15:31:33.753Z,18.40
2022-10-15T15:35:39.850Z,18.40
2022-10-15T15:39:44.100Z,18.30
2022-10-15T15:43:47.089Z,18.30
2022-10-15T15:47:50.184Z,18.20
2022-10-15T15:51:53.086Z,18.20
2022-10-15T15:55:57.267Z,18.10
2022-10-15T16:00:00.098Z,18.10
2022-10-15T16:04:02.956Z,18.10
2022-10-15T16:08:05.889Z,18.10
2022-10-15T16:12:10.128Z,18.00
2022-10-15T16:16:13.070Z,18.00
2022-10-15T16:20:16.048Z,18.00
2022-10-15T16:24:18.912Z,18.00
2022-10-15T16:28:23.246Z,17.90
2022-10-15T16:32:26.352Z,17.90
2022-10-15T16:36:29.192Z,17.80
2022-10-15T16:40:32.268Z,17.80
2022-10-15T16:44:36.505Z,17.80
2022-10-15T16:48:39.350Z,17.70
2022-10-15T16:52:42.807Z,17.70
2022-10-15T16:56:49.100Z,17.70
2022-10-15T17:00:59.319Z,17.60
2022-10-15T17:05:02.367Z,17.60
2022-10-15T17:09:05.444Z,17.60
2022-10-15T17:13:08.316Z,17.60
2022-10-15T17:17:12.521Z,17.60
2022-10-15T17:21:16.911Z,17.50
2022-10-15T17:25:19.820Z,17.50
2022-10-15T17:29:27.741Z,17.50
2022-10-15T17:33:35.415Z,17.40
2022-10-15T17:37:39.844Z,17.40
2022-10-15T17:41:42.744Z,17.40
2022-10-15T17:45:45.648Z,17.40
2022-10-15T17:49:49.877Z,17.40
2022-10-15T17:53:53.209Z,17.40
2022-10-15T17:57:57.565Z,17.40
2022-10-15T18:02:01.112Z,17.40
2022-10-15T18:06:09.836Z,17.40
2022-10-15T18:10:14.546Z,17.40
2022-10-15T18:14:18.533Z,17.40
2022-10-15T18:18:21.368Z,17.40
2022-10-15T18:22:25.607Z,17.40
2022-10-15T18:26:28.437Z,17.40
2022-10-15T18:30:31.295Z,17.40
2022-10-15T18:34:34.407Z,17.40
2022-10-15T18:38:39.069Z,17.40
2022-10-15T18:42:45.075Z,17.40
2022-10-15T18:46:50.827Z,17.40
2022-10-15T18:50:54.886Z,17.40
2022-10-15T18:54:59.104Z,17.30
2022-10-15T18:59:02.063Z,17.30
2022-10-15T19:03:06.789Z,17.30
2022-10-15T19:07:09.657Z,17.30
2022-10-15T19:11:14.229Z,17.30
2022-10-15T19:15:17.238Z,17.20
2022-10-15T19:19:21.374Z,17.20
2022-10-15T19:23:24.222Z,17.20
2022-10-15T19:27:28.563Z,17.20
2022-10-15T19:31:32.285Z,17.30
2022-10-15T19:35:39.126Z,17.30
2022-10-15T19:39:48.155Z,17.30
2022-10-15T19:43:52.393Z,17.20
2022-10-15T19:47:58.624Z,17.30
2022-10-15T19:52:05.277Z,17.20
2022-10-15T19:56:09.935Z,17.20
2022-10-15T20:00:15.047Z,17.20
2022-10-15T20:04:17.927Z,17.10
2022-10-15T20:08:21.337Z,17.10
2022-10-15T20:12:24.304Z,17.00
2022-10-15T20:16:32.884Z,16.90
2022-10-15T20:20:37.973Z,16.90
2022-10-15T20:24:41.049Z,16.70
2022-10-15T20:28:44.923Z,16.70
2022-10-15T20:32:49.336Z,16.60
2022-10-15T20:36:52.675Z,16.50
2022-10-15T20:40:55.551Z,16.40
2022-10-15T20:44:58.397Z,16.30
2022-10-15T20:49:07.809Z,16.20
2022-10-15T20:53:11.757Z,16.10
2022-10-15T20:57:14.712Z,16.00
2022-10-15T21:01:17.944Z,15.90
2022-10-15T21:05:22.278Z,15.90
2022-10-15T21:09:25.311Z,15.90
2022-10-15T21:13:28.188Z,15.90
2022-10-15T21:17:31.149Z,15.80
2022-10-15T21:21:35.372Z,15.80
2022-10-15T21:29:42.704Z,15.70
2022-10-15T21:33:46.136Z,15.60
2022-10-15T21:37:51.388Z,15.60
2022-10-15T21:41:54.236Z,15.60
2022-10-15T21:45:57.227Z,15.60
2022-10-15T21:50:00.059Z,15.50
2022-10-15T21:54:05.289Z,15.40
2022-10-15T21:58:08.113Z,15.40
2022-10-15T22:02:11.115Z,15.40
2022-10-15T22:06:14.257Z,15.30
2022-10-15T22:10:18.560Z,15.30
2022-10-15T22:14:21.402Z,15.20
2022-10-15T22:18:24.244Z,15.20
2022-10-15T22:22:27.428Z,15.20
2022-10-15T22:26:32.651Z,15.10
2022-10-15T22:30:35.803Z,15.10
2022-10-15T22:34:38.628Z,15.00
2022-10-15T22:38:41.679Z,15.00
2022-10-15T22:42:46.507Z,14.90
2022-10-15T22:46:50.021Z,14.90
2022-10-15T22:50:56.282Z,14.80
2022-10-15T22:54:59.126Z,14.80
2022-10-15T22:59:03.545Z,14.70
2022-10-15T23:03:06.436Z,14.70
2022-10-15T23:07:09.332Z,14.60
2022-10-15T23:11:13.354Z,14.60
2022-10-15T23:15:17.580Z,14.50
2022-10-15T23:19:21.312Z,14.50
2022-10-15T23:23:24.308Z,14.40
2022-10-15T23:27:27.401Z,14.40
2022-10-15T23:31:33.295Z,14.40
2022-10-15T23:39:43.854Z,14.30
2022-10-15T23:43:46.904Z,14.30
2022-10-15T23:47:51.101Z,14.30
2022-10-15T23:51:54.020Z,14.30
2022-10-15T23:55:56.874Z,14.30
2022-10-15T23:59:59.992Z,14.30
